Bei Facebook empfehlenBei Twitter postenGoogle plusPinterest

Das Wetter im Erzgebirge am 25.07.2015

Wetter und Klima am 25.07.2015 Holzhau im Erzgebirge (630m ü.NN)
Letzte gemessene Temperatur und Uhrzeit der Messung23:45:00 Uhr12.80 °C
Temperatur (Maximum / Höchstwert) und Uhrzeit der Messung13:45:00 Uhr25.40 °C
Temperatur (Minimum / Tiefstwert) und Uhrzeit der Messung23:45:0012.80 °C
Errechneter Absolutwert der Temperaturschwankungen zwischen Tmin und Tmax des Tages12.60 K
Errechnete Tagesmitteltemperatur19.34479 °C
Gesamt - Niederschlag des Tages (in flüssiger Form)7.77 Liter / m²
Luftdruck (Maximum / Höchstwert) und Zeitpunkt der Messung23:15:00 Uhr1010.80 hPa
Luftdruck (Minimum / Tiefstwert) und Zeitpunkt der Messung07:15:00 Uhr1004.10 hPa
Errechneter Absolutwert der Luftdruckschwankungen des Tages6.70 hPa
Höchste gemessene Windgeschwindigkeit und Uhrzeit der Messung23:45:00 Uhr0.00 km/h
Errechnete Windhäufigkeit in Relation zu den Messwerten des Tages0.00000 %
Niedrigste Windkühle (Windchill) und Zeitpunkt der Messung23:45:00 Uhr12.80 °C
Taupunkt (Maximum / Höchstwert) und Uhrzeit der Messung11:00:00 Uhr18.10 °C
Taupunkt (Minimum / Tiefstwert) und Uhrzeit der Messung23:45:007.00 °C
Anzahl der automatisch eingelesenen Messwerte 96

Detaillierte Wetter- und Klima- Messwerte für den 25.07.2015 in Holzhau im Erzgebirge (630m ü.NN)
ZeitTemperaturLuftdruckRel. LuftfeuchteWindWindrichtungWindchillTaupunktNiederschlag l/m²
23:45:0012.80 °C1010.70 hPa68.00 %7.00 °C7.77
23:30:0013.30 °C1010.70 hPa66.00 %7.10 °C7.77
23:15:0013.90 °C1010.80 hPa66.00 %7.70 °C7.77
23:00:0013.90 °C1010.50 hPa67.00 %7.90 °C7.77
22:45:0013.80 °C1010.40 hPa67.00 %7.80 °C7.77
22:30:0013.70 °C1010.30 hPa65.00 %7.20 °C7.77
22:15:0013.90 °C1010.10 hPa64.00 %7.20 °C7.77
22:00:0014.30 °C1010.00 hPa62.00 %7.10 °C7.77
21:45:0015.00 °C1009.80 hPa61.00 %7.50 °C7.77
21:30:0015.30 °C1009.50 hPa60.00 %7.60 °C7.77
21:15:0015.60 °C1009.20 hPa60.00 %7.90 °C7.77
21:00:0015.90 °C1009.10 hPa59.00 %7.90 °C7.77
20:45:0016.30 °C1008.90 hPa58.00 %8.00 °C7.77
20:30:0017.00 °C1008.50 hPa57.00 %8.40 °C7.77
20:15:0017.40 °C1008.50 hPa56.00 %8.50 °C7.77
20:00:0018.30 °C1008.40 hPa53.00 %8.60 °C7.77
19:45:0018.80 °C1008.20 hPa53.00 %9.00 °C7.77
19:30:0019.00 °C1008.30 hPa52.00 %8.90 °C7.77
19:15:0019.60 °C1008.30 hPa50.00 %8.90 °C7.77
19:00:0019.80 °C1008.00 hPa51.00 %9.40 °C7.77
18:45:0021.20 °C1007.60 hPa45.00 %8.80 °C7.77
18:30:0021.50 °C1007.40 hPa43.00 %8.40 °C7.77
18:15:0021.80 °C1007.00 hPa43.00 %8.70 °C7.77
18:00:0022.10 °C1007.00 hPa43.00 %8.90 °C7.77
17:45:0022.50 °C1006.80 hPa45.00 %10.00 °C7.77
17:30:0023.10 °C1006.80 hPa46.00 %10.90 °C7.77
17:15:0023.30 °C1006.60 hPa44.00 %10.40 °C7.77
17:00:0023.40 °C1006.50 hPa45.00 %10.80 °C7.77
16:45:0023.40 °C1006.60 hPa45.00 %10.80 °C7.77
16:30:0023.60 °C1006.40 hPa44.00 %10.60 °C7.77
16:15:0023.60 °C1006.30 hPa48.00 %12.00 °C7.77
16:00:0023.30 °C1006.30 hPa52.00 %12.90 °C7.77
15:45:0022.90 °C1006.20 hPa57.00 %13.90 °C7.77
15:30:0022.70 °C1006.20 hPa62.00 %15.00 °C7.77
15:15:0022.40 °C1006.00 hPa71.00 %16.90 °C7.77
15:00:0021.80 °C1006.20 hPa78.00 %17.80 °C7.77
14:45:0020.60 °C1006.20 hPa77.00 %16.40 °C7.77
14:30:0019.60 °C1006.40 hPa73.00 %14.60 °C7.77
14:15:0022.90 °C1006.80 hPa64.00 %15.70 °C7.25
14:00:0024.40 °C1005.40 hPa58.00 %15.60 °C5.18
13:45:0025.40 °C1005.90 hPa56.00 %16.00 °C5.18
13:30:0024.90 °C1005.60 hPa61.00 %16.90 °C5.18
13:15:0024.10 °C1005.70 hPa61.00 %16.10 °C5.18
13:00:0023.80 °C1005.90 hPa65.00 %16.80 °C5.18
12:45:0023.20 °C1005.90 hPa70.00 %17.40 °C5.18
12:30:0023.00 °C1005.80 hPa69.00 %17.00 °C5.18
12:15:0023.30 °C1006.00 hPa70.00 %17.50 °C5.18
12:00:0022.90 °C1006.00 hPa72.00 %17.60 °C5.18
11:45:0022.40 °C1005.90 hPa75.00 %17.80 °C5.18
11:30:0022.30 °C1006.00 hPa76.00 %17.90 °C5.18
11:15:0022.10 °C1005.80 hPa77.00 %17.90 °C5.18
11:00:0022.30 °C1005.90 hPa77.00 %18.10 °C5.18
10:45:0022.00 °C1005.50 hPa77.00 %17.80 °C5.18
10:30:0021.40 °C1005.70 hPa80.00 %17.80 °C5.18
10:15:0020.90 °C1005.30 hPa82.00 %17.70 °C5.18
10:00:0020.60 °C1005.30 hPa83.00 %17.60 °C5.18
09:45:0020.60 °C1004.90 hPa84.00 %17.80 °C5.18
09:30:0019.60 °C1005.00 hPa88.00 %17.60 °C5.18
09:15:0018.60 °C1004.90 hPa89.00 %16.80 °C5.18
09:00:0017.60 °C1005.20 hPa89.00 %15.80 °C5.18
08:45:0017.30 °C1005.20 hPa89.00 %15.50 °C5.18
08:30:0017.40 °C1005.30 hPa89.00 %15.60 °C5.18
08:15:0017.60 °C1005.30 hPa88.00 %15.60 °C5.18
08:00:0017.60 °C1005.40 hPa89.00 %15.80 °C5.18
07:45:0017.30 °C1004.90 hPa90.00 %15.60 °C5.18
07:30:0016.40 °C1004.30 hPa89.00 %14.60 °C5.18
07:15:0016.20 °C1004.10 hPa89.00 %14.40 °C5.18
07:00:0016.40 °C1004.10 hPa89.00 %14.60 °C5.18
06:45:0016.20 °C1004.50 hPa88.00 %14.20 °C5.18
06:30:0016.20 °C1004.90 hPa88.00 %14.20 °C5.18
06:15:0016.40 °C1004.90 hPa86.00 %14.10 °C4.66
06:00:0016.60 °C1005.80 hPa85.00 %14.10 °C4.14
05:45:0017.30 °C1006.30 hPa83.00 %14.40 °C3.11
05:30:0018.90 °C1006.50 hPa79.00 %15.20 °C1.04
05:15:0019.60 °C1006.20 hPa76.00 %15.30 °C 
05:00:0019.10 °C1004.90 hPa77.00 %15.00 °C 
04:45:0018.80 °C1004.50 hPa76.00 %14.50 °C 
04:30:0018.80 °C1004.70 hPa76.00 %14.50 °C 
04:15:0018.70 °C1004.80 hPa75.00 %14.20 °C 
04:00:0018.80 °C1004.80 hPa75.00 %14.30 °C 
03:45:0018.80 °C1005.00 hPa74.00 %14.10 °C 
03:30:0018.90 °C1004.80 hPa74.00 %14.20 °C 
03:15:0018.90 °C1004.80 hPa73.00 %14.00 °C 
03:00:0018.90 °C1005.00 hPa73.00 %14.00 °C 
02:45:0019.30 °C1005.10 hPa72.00 %14.10 °C 
02:30:0019.40 °C1005.10 hPa72.00 %14.20 °C 
02:15:0019.50 °C1005.40 hPa71.00 %14.10 °C 
02:00:0019.60 °C1005.70 hPa71.00 %14.20 °C 
01:45:0019.40 °C1006.00 hPa72.00 %14.20 °C 
01:30:0019.30 °C1006.30 hPa72.00 %14.10 °C 
01:15:0019.00 °C1006.60 hPa74.00 %14.30 °C 
01:00:0018.10 °C1006.90 hPa77.00 %14.00 °C 
00:45:0016.60 °C1007.30 hPa79.00 %12.90 °C 
00:30:0016.90 °C1007.60 hPa78.00 %13.00 °C 
00:15:0016.90 °C1007.60 hPa77.00 %12.80 °C 
00:00:0017.30 °C1007.90 hPa75.00 %12.80 °C 

Permanenter Link zu dieser Seite: Wetter im Erzgebirge am 25.07.2015
Performance-Info: Die Erstellung der Seite / Statistik(en) / Tabelle(n) erforderte 5 Datenbankserver-Abfrage(n) und dauerte 101 Millisekunden. (Dieser Messwert ist von der Gesamt-Auslastung des Servers abhängig.)
Erzgebirge - Wetter | Erzgebirge - Wetter (Mobilgeräte) | Komplette Klimadatenbank